createdAt,value
2022-10-04T00:01:49.243Z,99198.46
2022-10-04T00:07:16.896Z,99188.33
2022-10-04T00:12:35.940Z,99182.80
2022-10-04T00:17:39.174Z,99173.51
2022-10-04T00:23:20.562Z,99174.33
2022-10-04T00:28:26.359Z,99176.34
2022-10-04T00:33:52.543Z,99174.27
2022-10-04T00:39:16.819Z,99168.94
2022-10-04T00:44:28.362Z,99171.58
2022-10-04T00:49:41.257Z,99171.77
2022-10-04T00:54:57.163Z,99170.61
2022-10-04T01:00:08.714Z,99175.14
2022-10-04T01:05:17.558Z,99173.71
2022-10-04T01:10:27.607Z,99175.73
2022-10-04T01:15:45.559Z,99172.31
2022-10-04T01:20:48.403Z,99168.94
2022-10-04T01:25:52.119Z,99164.48
2022-10-04T01:30:55.161Z,99159.86
2022-10-04T01:35:58.497Z,99163.97
2022-10-04T01:41:05.083Z,99159.94
2022-10-04T01:46:17.563Z,99158.98
2022-10-04T01:51:28.850Z,99161.48
2022-10-04T01:56:46.821Z,99153.63
2022-10-04T02:02:09.357Z,99157.74
2022-10-04T02:07:15.585Z,99158.16
2022-10-04T02:12:20.034Z,99164.80
2022-10-04T02:17:31.687Z,99166.48
2022-10-04T02:22:34.708Z,99166.67
2022-10-04T02:27:37.635Z,99171.88
2022-10-04T02:33:02.786Z,99166.23
2022-10-04T02:38:22.393Z,99172.96
2022-10-04T02:43:39.652Z,99173.13
2022-10-04T02:49:02.583Z,99179.95
2022-10-04T02:54:52.838Z,99186.31
2022-10-04T03:00:25.349Z,99184.53
2022-10-04T03:05:28.995Z,99187.86
2022-10-04T03:10:32.564Z,99188.52
2022-10-04T03:15:35.738Z,99189.84
2022-10-04T03:20:41.342Z,99191.98
2022-10-04T03:26:02.014Z,99188.06
2022-10-04T03:31:05.917Z,99189.45
2022-10-04T03:36:18.314Z,99199.95
2022-10-04T03:41:23.665Z,99202.69
2022-10-04T03:46:28.426Z,99199.92
2022-10-04T03:51:31.741Z,99203.34
2022-10-04T03:56:37.031Z,99202.66
2022-10-04T04:02:12.080Z,99210.30
2022-10-04T04:07:29.326Z,99209.11
2022-10-04T04:12:41.164Z,99206.63
2022-10-04T04:17:50.807Z,99206.74
2022-10-04T04:23:28.384Z,99211.27
2022-10-04T04:28:43.453Z,99215.88
2022-10-04T04:33:59.443Z,99218.30
2022-10-04T04:39:44.953Z,99215.86
2022-10-04T04:44:57.002Z,99218.48
2022-10-04T04:50:16.621Z,99227.83
2022-10-04T04:55:56.322Z,99235.23
2022-10-04T05:01:02.015Z,99248.91
2022-10-04T05:06:05.218Z,99247.70
2022-10-04T05:11:08.449Z,99254.81
2022-10-04T05:16:30.863Z,99257.10
2022-10-04T05:21:38.617Z,99255.34
2022-10-04T05:26:45.191Z,99259.72
2022-10-04T05:32:06.454Z,99266.41
2022-10-04T05:37:34.717Z,99272.33
2022-10-04T05:42:46.726Z,99281.83
2022-10-04T05:47:53.768Z,99293.30
2022-10-04T05:53:36.378Z,99305.84
2022-10-04T05:59:26.011Z,99310.45
2022-10-04T06:04:44.491Z,99323.54
2022-10-04T06:10:26.145Z,99326.08
2022-10-04T06:16:22.880Z,99331.77
2022-10-04T06:21:29.434Z,99329.58
2022-10-04T06:26:56.564Z,99337.20
2022-10-04T06:32:30.352Z,99342.98
2022-10-04T06:37:42.122Z,99342.93
2022-10-04T06:43:25.562Z,99350.27
2022-10-04T06:48:55.365Z,99356.45
2022-10-04T06:54:18.996Z,99362.85
2022-10-04T06:59:52.784Z,99374.95
2022-10-04T07:05:13.864Z,99381.66
2022-10-04T07:10:51.592Z,99397.09
2022-10-04T07:16:00.089Z,99401.35
2022-10-04T07:21:12.954Z,99413.41
2022-10-04T07:26:56.407Z,99417.19
2022-10-04T07:32:14.051Z,99419.70
2022-10-04T07:37:18.921Z,99425.23
2022-10-04T07:42:55.134Z,99429.11
2022-10-04T07:48:23.523Z,99440.94
2022-10-04T07:54:26.917Z,99441.08
2022-10-04T08:00:00.042Z,99448.89
2022-10-04T08:05:09.305Z,99457.90
2022-10-04T08:11:05.427Z,99465.73
2022-10-04T08:16:55.242Z,99467.30
2022-10-04T08:22:41.912Z,99464.40
2022-10-04T08:28:09.350Z,99473.86
2022-10-04T08:33:56.376Z,99476.98
2022-10-04T08:39:01.236Z,99480.64
2022-10-04T08:44:25.765Z,99486.70
2022-10-04T08:49:59.173Z,99488.62
2022-10-04T08:55:35.291Z,99493.68
2022-10-04T09:01:15.267Z,99501.31
2022-10-04T09:06:38.458Z,99504.77
2022-10-04T09:11:41.689Z,99511.38
2022-10-04T09:16:53.530Z,99507.92
2022-10-04T09:21:56.353Z,99511.13
2022-10-04T09:27:43.215Z,99510.73
2022-10-04T09:33:17.324Z,99527.56
2022-10-04T09:39:29.994Z,99532.65
2022-10-04T09:45:21.535Z,99534.68
2022-10-04T09:50:51.669Z,99540.44
2022-10-04T09:56:27.055Z,99551.46
2022-10-04T10:02:00.638Z,99555.13
2022-10-04T10:07:39.880Z,99560.09
2022-10-04T10:13:45.733Z,99562.27
2022-10-04T10:19:29.500Z,99571.34
2022-10-04T10:25:29.438Z,99574.48
2022-10-04T10:31:29.349Z,99572.89
2022-10-04T10:37:09.473Z,99583.20
2022-10-04T10:42:59.944Z,99581.39
2022-10-04T10:48:14.517Z,99577.79
2022-10-04T10:53:30.193Z,99589.84
2022-10-04T10:59:16.265Z,99594.73
2022-10-04T11:05:15.819Z,99605.19
2022-10-04T11:10:39.766Z,99605.23
2022-10-04T11:16:26.946Z,99611.23
2022-10-04T11:22:25.887Z,99613.33
2022-10-04T11:28:20.168Z,99623.44
2022-10-04T11:33:46.903Z,99629.42
2022-10-04T11:39:23.242Z,99631.75
2022-10-04T11:44:59.913Z,99636.69
2022-10-04T11:50:22.653Z,99634.40
2022-10-04T11:55:57.215Z,99647.84
2022-10-04T12:01:39.356Z,99649.17
2022-10-04T12:07:01.767Z,99648.86
2022-10-04T12:12:40.153Z,99661.33
2022-10-04T12:18:18.694Z,99667.94
2022-10-04T12:23:59.012Z,99671.18
2022-10-04T12:29:31.280Z,99676.66
2022-10-04T12:35:02.940Z,99689.52
2022-10-04T12:40:42.911Z,99689.35
2022-10-04T12:46:04.033Z,99692.21
2022-10-04T12:51:53.869Z,99700.86
2022-10-04T12:57:47.409Z,99707.44
2022-10-04T13:03:34.232Z,99714.45
2022-10-04T13:08:51.068Z,99716.67
2022-10-04T13:14:19.965Z,99722.23
2022-10-04T13:19:36.368Z,99727.06
2022-10-04T13:24:58.285Z,99726.80
2022-10-04T13:30:23.024Z,99725.64
2022-10-04T13:35:46.968Z,99727.44
2022-10-04T13:41:15.285Z,99727.46
2022-10-04T13:46:48.097Z,99737.21
2022-10-04T13:52:33.428Z,99744.70
2022-10-04T13:58:14.366Z,99746.98
2022-10-04T14:03:38.704Z,99749.89
2022-10-04T14:09:11.580Z,99758.63
2022-10-04T14:14:40.177Z,99756.94
2022-10-04T14:20:24.688Z,99753.01
2022-10-04T14:25:56.084Z,99763.70
2022-10-04T14:31:52.888Z,99770.89
2022-10-04T14:38:01.949Z,99770.21
2022-10-04T14:43:20.327Z,99772.30
2022-10-04T14:48:38.256Z,99774.55
2022-10-04T14:54:00.683Z,99776.80
2022-10-04T14:59:15.600Z,99776.16
2022-10-04T15:04:57.463Z,99785.92
2022-10-04T15:10:19.216Z,99795.18
2022-10-04T15:15:37.091Z,99797.95
2022-10-04T15:20:57.452Z,99808.77
2022-10-04T15:26:21.232Z,99814.77
2022-10-04T15:32:20.902Z,99822.09
2022-10-04T15:37:30.096Z,99823.42
2022-10-04T15:42:53.745Z,99827.07
2022-10-04T15:48:21.324Z,99833.21
2022-10-04T15:54:14.890Z,99840.54
2022-10-04T16:00:16.048Z,99840.98
2022-10-04T16:05:25.978Z,99856.33
2022-10-04T16:11:14.074Z,99864.59
2022-10-04T16:16:26.326Z,99869.61
2022-10-04T16:21:42.582Z,99873.95
2022-10-04T16:26:50.625Z,99871.51
2022-10-04T16:32:10.944Z,99880.27
2022-10-04T16:37:55.812Z,99880.77
2022-10-04T16:43:10.947Z,99888.59
2022-10-04T16:48:59.025Z,99891.95
2022-10-04T16:54:48.834Z,99900.67
2022-10-04T17:00:00.691Z,99912.09
2022-10-04T17:05:34.879Z,99920.98
2022-10-04T17:10:40.231Z,99925.44
2022-10-04T17:16:19.629Z,99922.66
2022-10-04T17:21:34.552Z,99926.77
2022-10-04T17:27:13.823Z,99929.11
2022-10-04T17:32:45.823Z,99929.00
2022-10-04T17:38:02.750Z,99933.36
2022-10-04T17:43:47.095Z,99942.20
2022-10-04T17:49:30.933Z,99947.06
2022-10-04T17:55:05.207Z,99944.94
2022-10-04T18:00:45.428Z,99945.85
2022-10-04T18:06:32.006Z,99953.88
2022-10-04T18:11:47.396Z,99959.67
2022-10-04T18:16:56.951Z,99961.83
2022-10-04T18:22:15.916Z,99962.75
2022-10-04T18:27:25.292Z,99963.88
2022-10-04T18:32:28.094Z,99968.33
2022-10-04T18:37:39.371Z,99978.89
2022-10-04T18:42:58.349Z,99984.23
2022-10-04T18:48:14.798Z,99983.27
2022-10-04T18:53:53.118Z,99994.36
2022-10-04T18:59:17.551Z,99998.63
2022-10-04T19:04:49.947Z,100008.59
2022-10-04T19:10:35.968Z,100012.28
2022-10-04T19:16:00.046Z,100016.94
2022-10-04T19:21:47.590Z,100020.48
2022-10-04T19:27:02.909Z,100026.52
2022-10-04T19:32:44.522Z,100028.44
2022-10-04T19:37:53.304Z,100029.99
2022-10-04T19:43:13.258Z,100034.35
2022-10-04T19:48:25.771Z,100037.73
2022-10-04T19:53:45.362Z,100041.04
2022-10-04T19:58:52.669Z,100046.96
2022-10-04T20:04:15.196Z,100051.32
2022-10-04T20:09:31.758Z,100055.63
2022-10-04T20:14:34.531Z,100059.78
2022-10-04T20:19:41.048Z,100067.17
2022-10-04T20:24:47.199Z,100069.33
2022-10-04T20:29:51.769Z,100075.47
2022-10-04T20:34:59.496Z,100076.27
2022-10-04T20:40:02.454Z,100083.33
2022-10-04T20:45:11.353Z,100088.60
2022-10-04T20:50:40.948Z,100090.39
2022-10-04T20:55:46.378Z,100097.85
2022-10-04T21:00:56.245Z,100104.77
2022-10-04T21:06:08.283Z,100104.75
2022-10-04T21:11:21.379Z,100110.92
2022-10-04T21:16:40.224Z,100108.33
2022-10-04T21:21:51.254Z,100108.98
2022-10-04T21:26:58.211Z,100119.77
2022-10-04T21:32:01.995Z,100126.15
2022-10-04T21:37:04.939Z,100127.38
2022-10-04T21:42:07.835Z,100126.88
2022-10-04T21:47:10.949Z,100133.30
2022-10-04T21:52:13.898Z,100128.45
2022-10-04T21:57:16.755Z,100132.07
2022-10-04T22:02:19.649Z,100138.39
2022-10-04T22:07:22.507Z,100131.87
2022-10-04T22:12:25.397Z,100134.83
2022-10-04T22:17:28.238Z,100128.30
2022-10-04T22:22:32.716Z,100120.01
2022-10-04T22:27:38.819Z,100111.21
2022-10-04T22:32:41.704Z,100110.77
2022-10-04T22:37:46.530Z,100110.50
2022-10-04T22:42:53.133Z,100110.68
2022-10-04T22:47:59.662Z,100115.00
2022-10-04T22:53:24.007Z,100121.27
2022-10-04T22:58:27.053Z,100129.51
2022-10-04T23:03:34.574Z,100141.04
2022-10-04T23:08:37.440Z,100146.42
2022-10-04T23:13:40.383Z,100154.40
2022-10-04T23:18:43.261Z,100155.59
2022-10-04T23:23:47.499Z,100161.46
2022-10-04T23:28:51.877Z,100163.33
2022-10-04T23:33:57.096Z,100166.94
2022-10-04T23:39:01.787Z,100158.95
2022-10-04T23:44:13.606Z,100152.11
2022-10-04T23:49:18.792Z,100145.92
2022-10-04T23:54:21.677Z,100145.94
2022-10-04T23:59:26.523Z,100147.20
